sensor_id;sensor_type;location;lat;lon;timestamp;pressure;altitude;pressure_sealevel;temperature;humidity
85462;BME280;75865;42.672;23.360;2024-02-21T00:00:45;95768.88;;;7.26;65.81
85462;BME280;75865;42.672;23.360;2024-02-21T00:03:13;95773.78;;;7.28;65.32
85462;BME280;75865;42.672;23.360;2024-02-21T00:05:39;95770.03;;;7.29;66.21
85462;BME280;75865;42.672;23.360;2024-02-21T00:08:06;95772.69;;;7.29;65.61
85462;BME280;75865;42.672;23.360;2024-02-21T00:10:33;95765.75;;;7.20;65.86
85462;BME280;75865;42.672;23.360;2024-02-21T00:13:02;95761.41;;;7.32;65.39
85462;BME280;75865;42.672;23.360;2024-02-21T00:15:28;95756.06;;;7.28;65.68
85462;BME280;75865;42.672;23.360;2024-02-21T00:17:55;95770.84;;;7.33;65.67
85462;BME280;75865;42.672;23.360;2024-02-21T00:20:22;95764.78;;;7.32;65.43
85462;BME280;75865;42.672;23.360;2024-02-21T00:22:49;95762.53;;;7.31;65.81
85462;BME280;75865;42.672;23.360;2024-02-21T00:25:16;95764.88;;;7.36;65.46
85462;BME280;75865;42.672;23.360;2024-02-21T00:27:42;95762.16;;;7.32;65.75
85462;BME280;75865;42.672;23.360;2024-02-21T00:30:10;95758.75;;;7.32;65.44
85462;BME280;75865;42.672;23.360;2024-02-21T00:32:37;95756.88;;;7.32;65.42
85462;BME280;75865;42.672;23.360;2024-02-21T00:35:04;95766.69;;;7.32;65.44
85462;BME280;75865;42.672;23.360;2024-02-21T00:37:31;95761.00;;;7.30;65.65
85462;BME280;75865;42.672;23.360;2024-02-21T00:39:58;95755.66;;;7.26;65.55
85462;BME280;75865;42.672;23.360;2024-02-21T00:42:25;95763.25;;;7.28;65.54
85462;BME280;75865;42.672;23.360;2024-02-21T00:44:52;95757.88;;;7.24;65.74
85462;BME280;75865;42.672;23.360;2024-02-21T00:47:18;95749.97;;;7.24;65.90
85462;BME280;75865;42.672;23.360;2024-02-21T00:49:45;95743.50;;;7.21;65.88
85462;BME280;75865;42.672;23.360;2024-02-21T00:52:12;95746.56;;;7.23;66.21
85462;BME280;75865;42.672;23.360;2024-02-21T00:54:39;95749.22;;;7.23;65.85
85462;BME280;75865;42.672;23.360;2024-02-21T00:57:18;95743.88;;;7.20;65.93
85462;BME280;75865;42.672;23.360;2024-02-21T00:59:45;95750.28;;;7.19;66.07
85462;BME280;75865;42.672;23.360;2024-02-21T01:02:12;95745.78;;;7.19;66.05
85462;BME280;75865;42.672;23.360;2024-02-21T01:04:39;95742.00;;;7.20;66.08
85462;BME280;75865;42.672;23.360;2024-02-21T01:07:07;95736.34;;;7.22;65.94
85462;BME280;75865;42.672;23.360;2024-02-21T01:09:33;95726.88;;;7.17;65.97
85462;BME280;75865;42.672;23.360;2024-02-21T01:12:00;95732.56;;;7.19;65.98
85462;BME280;75865;42.672;23.360;2024-02-21T01:14:27;95730.66;;;7.20;65.80
85462;BME280;75865;42.672;23.360;2024-02-21T01:16:54;95721.88;;;7.12;66.04
85462;BME280;75865;42.672;23.360;2024-02-21T01:19:21;95727.22;;;7.16;66.10
85462;BME280;75865;42.672;23.360;2024-02-21T01:21:48;95723.81;;;7.15;66.14
85462;BME280;75865;42.672;23.360;2024-02-21T01:24:15;95723.81;;;7.15;66.20
85462;BME280;75865;42.672;23.360;2024-02-21T01:26:41;95730.63;;;7.16;66.14
85462;BME280;75865;42.672;23.360;2024-02-21T01:29:08;95726.09;;;7.17;66.17
85462;BME280;75865;42.672;23.360;2024-02-21T01:31:35;95722.28;;;7.14;66.12
85462;BME280;75865;42.672;23.360;2024-02-21T01:34:02;95722.28;;;7.14;66.12
85462;BME280;75865;42.672;23.360;2024-02-21T01:36:28;95718.13;;;7.13;66.17
85462;BME280;75865;42.672;23.360;2024-02-21T01:38:55;95715.50;;;7.13;66.24
85462;BME280;75865;42.672;23.360;2024-02-21T01:41:22;95713.63;;;7.14;66.14
85462;BME280;75865;42.672;23.360;2024-02-21T01:43:48;95713.97;;;7.12;66.17
85462;BME280;75865;42.672;23.360;2024-02-21T01:46:15;95704.94;;;7.13;66.46
85462;BME280;75865;42.672;23.360;2024-02-21T01:48:42;95700.41;;;7.14;65.92
85462;BME280;75865;42.672;23.360;2024-02-21T01:51:09;95708.41;;;7.17;66.34
85462;BME280;75865;42.672;23.360;2024-02-21T01:53:43;95704.63;;;7.18;65.83
85462;BME280;75865;42.672;23.360;2024-02-21T01:56:12;95697.47;;;7.19;65.97
85462;BME280;75865;42.672;23.360;2024-02-21T01:58:40;95702.38;;;7.20;65.86
85462;BME280;75865;42.672;23.360;2024-02-21T02:01:09;95699.75;;;7.20;65.73
85462;BME280;75865;42.672;23.360;2024-02-21T02:03:37;95699.34;;;7.18;65.44
85462;BME280;75865;42.672;23.360;2024-02-21T02:06:07;95697.09;;;7.20;65.49
85462;BME280;75865;42.672;23.360;2024-02-21T02:08:34;95702.00;;;7.18;65.42
85462;BME280;75865;42.672;23.360;2024-02-21T02:11:01;95705.44;;;7.22;65.19
85462;BME280;75865;42.672;23.360;2024-02-21T02:13:28;95708.84;;;7.23;65.05
85462;BME280;75865;42.672;23.360;2024-02-21T02:15:55;95701.28;;;7.21;65.12
85462;BME280;75865;42.672;23.360;2024-02-21T02:18:22;95704.31;;;7.23;64.92
85462;BME280;75865;42.672;23.360;2024-02-21T02:20:49;95697.88;;;7.21;65.21
85462;BME280;75865;42.672;23.360;2024-02-21T02:25:51;95696.81;;;7.25;64.68
85462;BME280;75865;42.672;23.360;2024-02-21T02:28:19;95692.66;;;7.24;65.02
85462;BME280;75865;42.672;23.360;2024-02-21T02:30:46;95692.97;;;7.19;64.82
85462;BME280;75865;42.672;23.360;2024-02-21T02:33:14;95696.75;;;7.22;64.94
85462;BME280;75865;42.672;23.360;2024-02-21T02:35:41;95689.91;;;7.17;65.03
85462;BME280;75865;42.672;23.360;2024-02-21T02:38:07;95695.84;;;7.11;65.24
85462;BME280;75865;42.672;23.360;2024-02-21T02:40:34;95685.28;;;7.11;65.30
85462;BME280;75865;42.672;23.360;2024-02-21T02:43:01;95678.47;;;7.10;65.30
85462;BME280;75865;42.672;23.360;2024-02-21T02:45:28;95685.28;;;7.11;65.19
85462;BME280;75865;42.672;23.360;2024-02-21T02:47:58;95673.94;;;7.10;65.06
85462;BME280;75865;42.672;23.360;2024-02-21T02:50:27;95690.91;;;7.09;65.17
85462;BME280;75865;42.672;23.360;2024-02-21T02:52:54;95688.25;;;7.09;65.18
85462;BME280;75865;42.672;23.360;2024-02-21T02:55:22;95688.66;;;7.08;65.71
85462;BME280;75865;42.672;23.360;2024-02-21T02:57:49;95688.25;;;7.09;65.47
85462;BME280;75865;42.672;23.360;2024-02-21T03:00:16;95696.94;;;7.10;65.11
85462;BME280;75865;42.672;23.360;2024-02-21T03:02:46;95684.41;;;7.03;65.74
85462;BME280;75865;42.672;23.360;2024-02-21T03:05:19;95698.44;;;7.07;65.87
85462;BME280;75865;42.672;23.360;2024-02-21T03:07:47;95682.94;;;7.06;65.73
85462;BME280;75865;42.672;23.360;2024-02-21T03:10:16;95688.66;;;7.08;65.54
85462;BME280;75865;42.672;23.360;2024-02-21T03:12:44;95694.72;;;7.12;65.85
85462;BME280;75865;42.672;23.360;2024-02-21T03:15:11;95701.19;;;7.14;65.61
85462;BME280;75865;42.672;23.360;2024-02-21T03:17:39;95703.06;;;7.14;65.29
85462;BME280;75865;42.672;23.360;2024-02-21T03:20:06;95708.41;;;7.17;65.62
85462;BME280;75865;42.672;23.360;2024-02-21T03:22:39;95697.41;;;7.15;65.63
85462;BME280;75865;42.672;23.360;2024-02-21T03:25:07;95704.25;;;7.20;65.36
85462;BME280;75865;42.672;23.360;2024-02-21T03:27:33;95699.72;;;7.17;65.27
85462;BME280;75865;42.672;23.360;2024-02-21T03:30:00;95703.47;;;7.16;65.54
85462;BME280;75865;42.672;23.360;2024-02-21T03:32:27;95703.13;;;7.17;65.62
85462;BME280;75865;42.672;23.360;2024-02-21T03:34:57;95704.25;;;7.20;65.50
85462;BME280;75865;42.672;23.360;2024-02-21T03:37:24;95715.59;;;7.20;65.27
85462;BME280;75865;42.672;23.360;2024-02-21T03:39:51;95716.34;;;7.21;65.25
85462;BME280;75865;42.672;23.360;2024-02-21T03:42:18;95720.50;;;7.22;65.44
85462;BME280;75865;42.672;23.360;2024-02-21T03:44:45;95709.44;;;7.13;65.08
85462;BME280;75865;42.672;23.360;2024-02-21T03:47:11;95723.50;;;7.20;65.33
85462;BME280;75865;42.672;23.360;2024-02-21T03:49:38;95729.19;;;7.22;65.13
85462;BME280;75865;42.672;23.360;2024-02-21T03:52:06;95704.09;;;7.09;65.31
85462;BME280;75865;42.672;23.360;2024-02-21T03:54:33;95729.63;;;7.24;65.07
85462;BME280;75865;42.672;23.360;2024-02-21T03:57:00;95728.50;;;7.25;64.98
85462;BME280;75865;42.672;23.360;2024-02-21T03:59:26;95722.81;;;7.23;64.87
85462;BME280;75865;42.672;23.360;2024-02-21T04:01:53;95723.56;;;7.24;64.90
85462;BME280;75865;42.672;23.360;2024-02-21T04:04:21;95723.16;;;7.22;64.90
85462;BME280;75865;42.672;23.360;2024-02-21T04:06:51;95729.16;;;7.19;65.10
85462;BME280;75865;42.672;23.360;2024-02-21T04:09:18;95716.31;;;7.17;65.11
85462;BME280;75865;42.672;23.360;2024-02-21T04:11:45;95722.41;;;7.21;64.69
85462;BME280;75865;42.672;23.360;2024-02-21T04:14:12;95716.34;;;7.21;64.85
85462;BME280;75865;42.672;23.360;2024-02-21T04:16:39;95716.31;;;7.17;65.03
85462;BME280;75865;42.672;23.360;2024-02-21T04:19:06;95718.22;;;7.20;65.17
85462;BME280;75865;42.672;23.360;2024-02-21T04:21:34;95718.22;;;7.20;65.12
85462;BME280;75865;42.672;23.360;2024-02-21T04:24:01;95715.19;;;7.18;64.98
85462;BME280;75865;42.672;23.360;2024-02-21T04:26:30;95717.00;;;7.14;65.06
85462;BME280;75865;42.672;23.360;2024-02-21T04:28:57;95716.31;;;7.17;64.94
85462;BME280;75865;42.672;23.360;2024-02-21T04:31:23;95714.78;;;7.16;64.90
85462;BME280;75865;42.672;23.360;2024-02-21T04:33:51;95713.25;;;7.15;64.79
85462;BME280;75865;42.672;23.360;2024-02-21T04:36:18;95709.44;;;7.13;64.80
85462;BME280;75865;42.672;23.360;2024-02-21T04:38:45;95723.00;;;7.11;64.94
85462;BME280;75865;42.672;23.360;2024-02-21T04:41:12;95712.34;;;7.04;64.97
85462;BME280;75865;42.672;23.360;2024-02-21T04:43:39;95722.19;;;7.07;64.96
85462;BME280;75865;42.672;23.360;2024-02-21T04:46:05;95724.41;;;7.05;65.15
85462;BME280;75865;42.672;23.360;2024-02-21T04:48:32;95716.78;;;7.00;65.16
85462;BME280;75865;42.672;23.360;2024-02-21T04:50:59;95716.72;;;6.97;65.13
85462;BME280;75865;42.672;23.360;2024-02-21T04:53:26;95717.44;;;6.94;65.45
85462;BME280;75865;42.672;23.360;2024-02-21T04:55:52;95718.91;;;6.91;65.35
85462;BME280;75865;42.672;23.360;2024-02-21T04:58:19;95718.84;;;6.87;65.43
85462;BME280;75865;42.672;23.360;2024-02-21T05:00:46;95710.50;;;6.85;65.52
85462;BME280;75865;42.672;23.360;2024-02-21T05:03:13;95714.22;;;6.81;65.65
85462;BME280;75865;42.672;23.360;2024-02-21T05:05:40;95711.94;;;6.79;65.70
85462;BME280;75865;42.672;23.360;2024-02-21T05:08:07;95717.91;;;6.76;65.92
85462;BME280;75865;42.672;23.360;2024-02-21T05:10:34;95719.00;;;6.75;65.81
85462;BME280;75865;42.672;23.360;2024-02-21T05:13:01;95723.09;;;6.73;66.21
85462;BME280;75865;42.672;23.360;2024-02-21T05:15:28;95725.34;;;6.71;66.38
85462;BME280;75865;42.672;23.360;2024-02-21T05:17:55;95715.75;;;6.59;66.14
85462;BME280;75865;42.672;23.360;2024-02-21T05:20:21;95734.38;;;6.70;66.34
85462;BME280;75865;42.672;23.360;2024-02-21T05:22:48;95737.03;;;6.70;66.45
85462;BME280;75865;42.672;23.360;2024-02-21T05:25:15;95731.34;;;6.68;66.49
85462;BME280;75865;42.672;23.360;2024-02-21T05:27:42;95735.16;;;6.70;66.51
85462;BME280;75865;42.672;23.360;2024-02-21T05:30:09;95723.06;;;6.69;66.60
85462;BME280;75865;42.672;23.360;2024-02-21T05:32:36;95720.78;;;6.68;66.18
85462;BME280;75865;42.672;23.360;2024-02-21T05:35:03;95735.25;;;6.77;66.75
85462;BME280;75865;42.672;23.360;2024-02-21T05:37:30;95733.81;;;6.80;66.75
85462;BME280;75865;42.672;23.360;2024-02-21T05:39:57;95734.91;;;6.79;66.67
85462;BME280;75865;42.672;23.360;2024-02-21T05:42:24;95733.88;;;6.83;66.69
85462;BME280;75865;42.672;23.360;2024-02-21T05:44:50;95740.72;;;6.88;66.56
85462;BME280;75865;42.672;23.360;2024-02-21T05:47:17;95735.16;;;6.93;66.54
85462;BME280;75865;42.672;23.360;2024-02-21T05:49:47;95748.38;;;6.97;66.27
85462;BME280;75865;42.672;23.360;2024-02-21T05:52:14;95737.91;;;7.00;66.32
85462;BME280;75865;42.672;23.360;2024-02-21T05:54:42;95748.88;;;7.02;66.19
85462;BME280;75865;42.672;23.360;2024-02-21T05:57:08;95748.94;;;7.06;66.02
85462;BME280;75865;42.672;23.360;2024-02-21T05:59:38;95745.94;;;7.07;65.72
85462;BME280;75865;42.672;23.360;2024-02-21T06:02:06;95751.28;;;7.11;65.57
85462;BME280;75865;42.672;23.360;2024-02-21T06:04:34;95752.44;;;7.13;65.60
85462;BME280;75865;42.672;23.360;2024-02-21T06:07:01;95755.16;;;7.17;65.63
85462;BME280;75865;42.672;23.360;2024-02-21T06:09:28;95760.84;;;7.19;65.31
85462;BME280;75865;42.672;23.360;2024-02-21T06:11:55;95755.94;;;7.21;65.03
85462;BME280;75865;42.672;23.360;2024-02-21T06:14:22;95765.03;;;7.23;65.21
85462;BME280;75865;42.672;23.360;2024-02-21T06:16:49;95771.91;;;7.28;64.91
85462;BME280;75865;42.672;23.360;2024-02-21T06:19:15;95766.28;;;7.30;64.81
85462;BME280;75865;42.672;23.360;2024-02-21T06:21:42;95771.25;;;7.35;64.40
85462;BME280;75865;42.672;23.360;2024-02-21T06:24:09;95775.91;;;7.41;63.83
85462;BME280;75865;42.672;23.360;2024-02-21T06:26:36;95772.16;;;7.42;63.75
85462;BME280;75865;42.672;23.360;2024-02-21T06:29:03;95778.69;;;7.52;63.46
85462;BME280;75865;42.672;23.360;2024-02-21T06:31:30;95778.72;;;7.55;63.34
85462;BME280;75865;42.672;23.360;2024-02-21T06:33:58;95782.56;;;7.58;63.38
85462;BME280;75865;42.672;23.360;2024-02-21T06:36:25;95788.34;;;7.67;63.08
85462;BME280;75865;42.672;23.360;2024-02-21T06:38:52;95785.41;;;7.72;62.48
85462;BME280;75865;42.672;23.360;2024-02-21T06:41:19;95787.00;;;7.77;62.61
85462;BME280;75865;42.672;23.360;2024-02-21T06:43:46;95787.78;;;7.81;62.47
85462;BME280;75865;42.672;23.360;2024-02-21T06:46:27;95799.19;;;7.85;62.21
85462;BME280;75865;42.672;23.360;2024-02-21T06:48:56;95803.41;;;7.89;62.29
85462;BME280;75865;42.672;23.360;2024-02-21T06:51:24;95798.22;;;7.96;61.96
85462;BME280;75865;42.672;23.360;2024-02-21T06:53:52;95805.84;;;8.02;62.06
85462;BME280;75865;42.672;23.360;2024-02-21T06:56:19;95802.47;;;8.05;62.10
85462;BME280;75865;42.672;23.360;2024-02-21T06:58:46;95811.28;;;8.16;61.86
85462;BME280;75865;42.672;23.360;2024-02-21T07:01:13;95808.34;;;8.21;61.72
85462;BME280;75865;42.672;23.360;2024-02-21T07:03:40;95791.84;;;8.31;61.86
85462;BME280;75865;42.672;23.360;2024-02-21T07:06:08;95786.16;;;8.29;61.23
85462;BME280;75865;42.672;23.360;2024-02-21T07:08:35;95806.44;;;8.48;61.01
85462;BME280;75865;42.672;23.360;2024-02-21T07:11:02;95794.00;;;8.52;60.94
85462;BME280;75865;42.672;23.360;2024-02-21T07:13:29;95802.47;;;8.64;60.59
85462;BME280;75865;42.672;23.360;2024-02-21T07:15:56;95808.22;;;8.70;60.34
85462;BME280;75865;42.672;23.360;2024-02-21T07:18:23;95802.63;;;8.79;60.12
85462;BME280;75865;42.672;23.360;2024-02-21T07:20:52;95806.09;;;8.83;59.41
85462;BME280;75865;42.672;23.360;2024-02-21T07:23:19;95802.31;;;8.84;59.45
85462;BME280;75865;42.672;23.360;2024-02-21T07:25:45;95806.09;;;8.83;59.63
85462;BME280;75865;42.672;23.360;2024-02-21T07:28:12;95811.06;;;8.91;59.38
85462;BME280;75865;42.672;23.360;2024-02-21T07:30:40;95806.91;;;8.90;59.60
85462;BME280;75865;42.672;23.360;2024-02-21T07:33:07;95806.19;;;8.97;59.40
85462;BME280;75865;42.672;23.360;2024-02-21T07:35:33;95810.47;;;9.05;59.24
85462;BME280;75865;42.672;23.360;2024-02-21T07:38:01;95809.75;;;9.12;58.86
85462;BME280;75865;42.672;23.360;2024-02-21T07:40:27;95804.84;;;9.14;58.52
85462;BME280;75865;42.672;23.360;2024-02-21T07:42:54;95808.31;;;9.18;58.32
85462;BME280;75865;42.672;23.360;2024-02-21T07:45:21;95814.00;;;9.20;58.12
85462;BME280;75865;42.672;23.360;2024-02-21T07:47:50;95814.78;;;9.20;58.17
85462;BME280;75865;42.672;23.360;2024-02-21T07:50:17;95810.63;;;9.23;58.17
85462;BME280;75865;42.672;23.360;2024-02-21T07:52:44;95804.59;;;9.26;57.95
85462;BME280;75865;42.672;23.360;2024-02-21T07:55:11;95806.91;;;9.31;58.17
85462;BME280;75865;42.672;23.360;2024-02-21T07:57:38;95809.97;;;9.36;58.19
85462;BME280;75865;42.672;23.360;2024-02-21T08:00:05;95800.19;;;9.44;58.13
85462;BME280;75865;42.672;23.360;2024-02-21T08:02:32;95802.50;;;9.49;57.86
85462;BME280;75865;42.672;23.360;2024-02-21T08:04:59;95802.94;;;9.58;58.22
85462;BME280;75865;42.672;23.360;2024-02-21T08:07:26;95801.13;;;9.66;57.72
85462;BME280;75865;42.672;23.360;2024-02-21T08:09:56;95797.72;;;9.69;57.66
85462;BME280;75865;42.672;23.360;2024-02-21T08:12:23;95800.06;;;9.77;56.74
85462;BME280;75865;42.672;23.360;2024-02-21T08:14:49;95800.44;;;9.79;56.94
85462;BME280;75865;42.672;23.360;2024-02-21T08:17:16;95812.59;;;9.84;56.23
85462;BME280;75865;42.672;23.360;2024-02-21T08:19:43;95808.81;;;9.82;56.56
85462;BME280;75865;42.672;23.360;2024-02-21T08:22:10;95800.88;;;9.85;56.54
85462;BME280;75865;42.672;23.360;2024-02-21T08:24:36;95802.44;;;9.93;56.44
85462;BME280;75865;42.672;23.360;2024-02-21T08:27:04;95802.09;;;9.98;56.29
85462;BME280;75865;42.672;23.360;2024-02-21T08:29:31;95806.31;;;10.06;56.47
85462;BME280;75865;42.672;23.360;2024-02-21T08:31:58;95809.38;;;10.15;56.06
85462;BME280;75865;42.672;23.360;2024-02-21T08:34:25;95793.53;;;10.23;55.68
85462;BME280;75865;42.672;23.360;2024-02-21T08:36:52;95804.22;;;10.37;55.37
85462;BME280;75865;42.672;23.360;2024-02-21T08:39:18;95803.50;;;10.47;55.12
85462;BME280;75865;42.672;23.360;2024-02-21T08:41:45;95797.88;;;10.66;54.95
85462;BME280;75865;42.672;23.360;2024-02-21T08:44:23;95790.72;;;10.81;54.67
85462;BME280;75865;42.672;23.360;2024-02-21T08:46:54;95801.00;;;10.97;53.39
85462;BME280;75865;42.672;23.360;2024-02-21T08:49:21;95802.16;;;11.10;52.90
85462;BME280;75865;42.672;23.360;2024-02-21T08:51:48;95800.66;;;11.12;51.98
85462;BME280;75865;42.672;23.360;2024-02-21T08:54:15;95803.31;;;11.19;51.58
85462;BME280;75865;42.672;23.360;2024-02-21T08:56:43;95805.22;;;11.26;51.45
85462;BME280;75865;42.672;23.360;2024-02-21T08:59:10;95802.56;;;11.30;51.60
85462;BME280;75865;42.672;23.360;2024-02-21T09:01:37;95801.44;;;11.41;51.56
85462;BME280;75865;42.672;23.360;2024-02-21T09:04:05;95795.38;;;11.66;50.96
85462;BME280;75865;42.672;23.360;2024-02-21T09:06:32;95808.28;;;11.81;50.57
85462;BME280;75865;42.672;23.360;2024-02-21T09:09:00;95794.59;;;11.93;50.35
85462;BME280;75865;42.672;23.360;2024-02-21T09:11:27;95808.22;;;12.20;50.03
85462;BME280;75865;42.672;23.360;2024-02-21T09:13:55;95808.19;;;12.31;49.41
85462;BME280;75865;42.672;23.360;2024-02-21T09:16:22;95807.03;;;12.32;48.47
85462;BME280;75865;42.672;23.360;2024-02-21T09:18:50;95810.13;;;12.23;48.58
85462;BME280;75865;42.672;23.360;2024-02-21T09:21:17;95813.53;;;12.20;48.94
85462;BME280;75865;42.672;23.360;2024-02-21T09:23:45;95808.97;;;12.24;49.02
85462;BME280;75865;42.672;23.360;2024-02-21T09:26:12;95810.09;;;12.34;49.05
85462;BME280;75865;42.672;23.360;2024-02-21T09:28:43;95805.91;;;12.37;48.51
85462;BME280;75865;42.672;23.360;2024-02-21T09:31:13;95800.56;;;12.37;48.69
85462;BME280;75865;42.672;23.360;2024-02-21T09:33:40;95801.69;;;12.43;48.53
85462;BME280;75865;42.672;23.360;2024-02-21T09:36:08;95802.06;;;12.48;48.05
85462;BME280;75865;42.672;23.360;2024-02-21T09:38:35;95802.03;;;12.52;48.06
85462;BME280;75865;42.672;23.360;2024-02-21T09:41:17;95802.00;;;12.59;47.90
85462;BME280;75865;42.672;23.360;2024-02-21T09:43:51;95817.94;;;12.66;47.98
85462;BME280;75865;42.672;23.360;2024-02-21T09:46:25;95811.84;;;12.65;47.90
85462;BME280;75865;42.672;23.360;2024-02-21T09:51:39;95813.75;;;12.65;47.40
85462;BME280;75865;42.672;23.360;2024-02-21T09:54:07;95810.72;;;12.70;47.45
85462;BME280;75865;42.672;23.360;2024-02-21T09:56:45;95798.09;;;12.78;47.43
85462;BME280;75865;42.672;23.360;2024-02-21T09:59:15;95797.34;;;12.77;47.07
85462;BME280;75865;42.672;23.360;2024-02-21T10:01:43;95795.44;;;12.81;47.15
85462;BME280;75865;42.672;23.360;2024-02-21T10:04:11;95806.03;;;12.88;47.09
85462;BME280;75865;42.672;23.360;2024-02-21T10:06:38;95797.28;;;12.91;46.96
85462;BME280;75865;42.672;23.360;2024-02-21T10:09:06;95797.25;;;12.95;47.02
85462;BME280;75865;42.672;23.360;2024-02-21T10:11:33;95795.69;;;13.01;46.72
85462;BME280;75865;42.672;23.360;2024-02-21T10:14:06;95796.00;;;13.10;45.96
85462;BME280;75865;42.672;23.360;2024-02-21T10:16:34;95795.94;;;13.24;45.17
85462;BME280;75865;42.672;23.360;2024-02-21T10:19:01;95783.34;;;13.32;44.69
85462;BME280;75865;42.672;23.360;2024-02-21T10:21:30;95775.66;;;13.41;44.71
85462;BME280;75865;42.672;23.360;2024-02-21T10:23:57;95778.22;;;13.55;44.88
85462;BME280;75865;42.672;23.360;2024-02-21T10:26:24;95774.75;;;13.58;44.65
85462;BME280;75865;42.672;23.360;2024-02-21T10:28:51;95775.09;;;13.60;43.17
85462;BME280;75865;42.672;23.360;2024-02-21T10:31:23;95769.84;;;13.53;43.12
85462;BME280;75865;42.672;23.360;2024-02-21T10:33:58;95759.31;;;13.35;42.59
85462;BME280;75865;42.672;23.360;2024-02-21T10:36:25;95763.53;;;13.33;43.15
85462;BME280;75865;42.672;23.360;2024-02-21T10:38:53;95749.00;;;13.41;42.95
85462;BME280;75865;42.672;23.360;2024-02-21T10:41:22;95747.34;;;13.54;42.72
85462;BME280;75865;42.672;23.360;2024-02-21T10:43:51;95747.16;;;13.76;42.39
85462;BME280;75865;42.672;23.360;2024-02-21T10:46:23;95738.53;;;13.98;41.85
85462;BME280;75865;42.672;23.360;2024-02-21T10:49:12;95733.66;;;14.27;41.68
85462;BME280;75865;42.672;23.360;2024-02-21T10:51:43;95730.09;;;14.68;41.31
85462;BME280;75865;42.672;23.360;2024-02-21T10:54:52;95725.22;;;14.90;40.26
85462;BME280;75865;42.672;23.360;2024-02-21T10:57:23;95715.47;;;15.03;39.46
85462;BME280;75865;42.672;23.360;2024-02-21T10:59:53;95718.22;;;15.23;39.47
85462;BME280;75865;42.672;23.360;2024-02-21T11:02:21;95713.22;;;15.71;39.25
85462;BME280;75865;42.672;23.360;2024-02-21T11:04:49;95711.00;;;16.49;38.65
85462;BME280;75865;42.672;23.360;2024-02-21T11:07:16;95700.78;;;17.28;36.57
85462;BME280;75865;42.672;23.360;2024-02-21T11:09:51;95698.75;;;17.81;35.35
85462;BME280;75865;42.672;23.360;2024-02-21T11:12:22;95693.09;;;17.92;34.80
85462;BME280;75865;42.672;23.360;2024-02-21T11:14:49;95701.13;;;18.33;34.78
85462;BME280;75865;42.672;23.360;2024-02-21T11:17:19;95701.97;;;19.10;33.26
85462;BME280;75865;42.672;23.360;2024-02-21T11:19:53;95695.06;;;20.03;31.01
85462;BME280;75865;42.672;23.360;2024-02-21T11:22:20;95694.00;;;20.75;29.97
85462;BME280;75865;42.672;23.360;2024-02-21T11:24:49;95699.47;;;20.94;28.43
85462;BME280;75865;42.672;23.360;2024-02-21T11:27:19;95702.28;;;21.21;27.98
85462;BME280;75865;42.672;23.360;2024-02-21T11:29:56;95695.19;;;22.00;27.55
85462;BME280;75865;42.672;23.360;2024-02-21T11:32:25;95693.06;;;22.22;25.92
85462;BME280;75865;42.672;23.360;2024-02-21T11:35:03;95691.41;;;21.97;25.68
85462;BME280;75865;42.672;23.360;2024-02-21T11:37:35;95685.84;;;21.46;26.89
85462;BME280;75865;42.672;23.360;2024-02-21T11:40:05;95685.03;;;21.18;26.69
85462;BME280;75865;42.672;23.360;2024-02-21T11:42:38;95685.25;;;20.62;26.79
85462;BME280;75865;42.672;23.360;2024-02-21T11:45:06;95678.94;;;19.91;27.82
85462;BME280;75865;42.672;23.360;2024-02-21T11:47:35;95673.91;;;19.45;28.52
85462;BME280;75865;42.672;23.360;2024-02-21T11:50:09;95676.47;;;18.76;29.27
85462;BME280;75865;42.672;23.360;2024-02-21T11:52:38;95662.19;;;18.13;30.03
85462;BME280;75865;42.672;23.360;2024-02-21T11:55:05;95660.34;;;17.52;31.13
85462;BME280;75865;42.672;23.360;2024-02-21T11:57:35;95652.25;;;17.07;31.62
85462;BME280;75865;42.672;23.360;2024-02-21T12:00:15;95663.66;;;16.78;32.72
85462;BME280;75865;42.672;23.360;2024-02-21T12:02:43;95658.56;;;16.48;32.76
85462;BME280;75865;42.672;23.360;2024-02-21T12:05:12;95663.41;;;16.17;33.03
85462;BME280;75865;42.672;23.360;2024-02-21T12:07:39;95657.44;;;15.70;34.14
85462;BME280;75865;42.672;23.360;2024-02-21T12:10:11;95658.97;;;15.47;34.62
85462;BME280;75865;42.672;23.360;2024-02-21T12:12:38;95652.00;;;15.30;34.88
85462;BME280;75865;42.672;23.360;2024-02-21T12:15:06;95652.28;;;15.12;35.12
85462;BME280;75865;42.672;23.360;2024-02-21T12:17:34;95648.69;;;14.99;35.79
85462;BME280;75865;42.672;23.360;2024-02-21T12:20:02;95645.84;;;14.87;36.06
85462;BME280;75865;42.672;23.360;2024-02-21T12:22:36;95640.78;;;14.69;36.95
85462;BME280;75865;42.672;23.360;2024-02-21T12:25:23;95640.97;;;14.55;37.37
85462;BME280;75865;42.672;23.360;2024-02-21T12:27:52;95644.28;;;14.35;37.60
85462;BME280;75865;42.672;23.360;2024-02-21T12:30:19;95636.94;;;14.13;37.56
85462;BME280;75865;42.672;23.360;2024-02-21T12:32:46;95644.00;;;13.96;38.51
85462;BME280;75865;42.672;23.360;2024-02-21T12:35:14;95635.91;;;13.72;38.52
85462;BME280;75865;42.672;23.360;2024-02-21T12:37:42;95615.28;;;13.43;38.61
85462;BME280;75865;42.672;23.360;2024-02-21T12:40:09;95634.00;;;13.35;38.94
85462;BME280;75865;42.672;23.360;2024-02-21T12:42:37;95632.56;;;13.27;38.98
85462;BME280;75865;42.672;23.360;2024-02-21T12:45:04;95631.16;;;13.16;38.93
85462;BME280;75865;42.672;23.360;2024-02-21T12:47:31;95627.38;;;13.10;39.16
85462;BME280;75865;42.672;23.360;2024-02-21T12:49:58;95626.63;;;13.06;39.23
85462;BME280;75865;42.672;23.360;2024-02-21T12:52:25;95622.19;;;12.92;39.47
85462;BME280;75865;42.672;23.360;2024-02-21T12:54:52;95618.50;;;12.75;39.48
85462;BME280;75865;42.672;23.360;2024-02-21T12:57:23;95624.66;;;12.65;40.24
85462;BME280;75865;42.672;23.360;2024-02-21T12:59:52;95619.00;;;12.59;41.11
85462;BME280;75865;42.672;23.360;2024-02-21T13:02:19;95619.81;;;12.53;41.53
85462;BME280;75865;42.672;23.360;2024-02-21T13:04:47;95617.94;;;12.50;42.56
85462;BME280;75865;42.672;23.360;2024-02-21T13:07:14;95607.31;;;12.43;42.89